• Join FlightAware (Why Join?)
  • Login
  • US Flag 
11:33PM EDT


 

Airport Tracker/Info


-or-


 

Live Flight TrackerFlight Track Log ✈ EJA929 ✈ 15-Jun-2013 ✈ KSFO - KVNY

Flight Track Log - Related Links

Times and Time Zones

All times are in EDT time to prevent confusion due to time zone crossing. See the EJA929 flight status page for this flight to view local times or setup timezone preferences in your user account.

Time Position Orientation Groundspeed Altitude Reporting Facility
EDT Latitude Longitude Course Direction KTS MPH feet Rate Location/Type
10:30AM 37.6483 -122.3639 356° North 192 221 2,200  Level Oakland Center
10:30AM 37.6833 -122.3667 356° North 224 258 4,700 3,180 Climbing Northern Cal TRACON
10:31AM 37.7000 -122.4333 288° West 284 327 7,000 1,800 Climbing Northern Cal TRACON
10:32AM 37.6333 -122.4333 180° South 295 339 8,200 1,740 Climbing Northern Cal TRACON
10:33AM 37.5906 -122.4050 152° Southeast 297 342 9,800 2,160 Climbing Oakland Center
10:34AM 37.5264 -122.3325 138° Southeast 307 353 11,700 1,860 Climbing Oakland Center
10:35AM 37.4492 -122.2506 140° Southeast 361 415 13,600 1,860 Climbing Oakland Center
10:36AM 37.3714 -122.1664 139° Southeast 367 422 15,500 1,860 Climbing Oakland Center
10:37AM 37.2886 -122.0817 141° Southeast 381 438 17,400 1,800 Climbing Oakland Center
10:38AM 37.2047 -121.9925 140° Southeast 395 455 19,200 1,740 Climbing Oakland Center
10:39AM 37.1181 -121.9017 140° Southeast 406 467 21,000 2,100 Climbing Oakland Center
10:40AM 37.0100 -121.7903 141° Southeast 421 484 23,500 2,040 Climbing Oakland Center
10:41AM 36.9167 -121.6989 142° Southeast 428 493 25,200 1,800 Climbing Oakland Center
10:42AM 36.8214 -121.6019 141° Southeast 440 506 27,200 1,860 Climbing Oakland Center
10:43AM 36.7206 -121.4969 140° Southeast 457 526 29,000 1,800 Climbing Oakland Center
10:44AM 36.6206 -121.3939 140° Southeast 467 537 30,900 960 Climbing Oakland Center
10:45AM 36.5150 -121.2847 140° Southeast 495 570 31,000  Climbing Oakland Center
10:46AM 36.4097 -121.1781 141° Southeast 490 564 31,000  Level Oakland Center
10:47AM 36.3028 -121.0683 140° Southeast 499 574 31,000  Level Oakland Center
10:48AM 36.1900 -120.9558 141° Southeast 518 596 31,000  Level Oakland Center
10:49AM 36.0764 -120.8381 140° Southeast 532 612 31,000  Level Oakland Center
10:50AM 35.9606 -120.7225 141° Southeast 534 615 31,000  Level Oakland Center
10:51AM 35.8453 -120.6081 141° Southeast 533 613 31,000  Level Oakland Center
10:52AM 35.7308 -120.4925 141° Southeast 532 612 31,000  Level Oakland Center
10:53AM 35.6156 -120.3786 141° Southeast 530 610 31,000 -120 Level Oakland Center
10:53AM 35.5678 -120.3314 141° Southeast 530 610 30,900 -600 Descending Los Angeles Center
10:54AM 35.4667 -120.2325 141° Southeast 469 540 30,300 -1,740 Descending Los Angeles Center
10:55AM 35.3758 -120.1433 141° Southeast 422 486 27,400 -2,760 Descending Los Angeles Center
10:56AM 35.2847 -120.0519 141° Southeast 408 470 24,700 -1,920 Descending Los Angeles Center
10:57AM 35.1992 -119.9692 142° Southeast 394 453 23,500 -1,260 Descending Los Angeles Center
10:58AM 35.1117 -119.8836 141° Southeast 400 460 22,200 -1,320 Descending Los Angeles Center
10:59AM 35.0381 -119.7900 134° Southeast 385 443 20,900 -1,260 Descending Los Angeles Center
11:00AM 34.9678 -119.6956 132° Southeast 377 434 19,700 -1,260 Descending Los Angeles Center
11:01AM 34.8961 -119.5969 132° Southeast 388 447 18,400 -1,440 Descending Los Angeles Center
11:02AM 34.8042 -119.4753 133° Southeast 404 465 16,800 -1,500 Descending Los Angeles Center
11:04AM 34.7272 -119.3714 132° Southeast 413 475 15,400 -1,320 Descending Los Angeles Center
11:05AM 34.6464 -119.2647 133° Southeast 426 490 14,100 -1,320 Descending Los Angeles Center
11:06AM 34.5639 -119.1553 132° Southeast 405 466 12,700 -1,260 Descending Los Angeles Center
11:07AM 34.5014 -119.0719 132° Southeast 332 382 11,600 -840 Descending Los Angeles Center
11:08AM 34.4456 -118.9981 132° Southeast 301 346 11,000 -360 Descending Los Angeles Center
11:09AM 34.3922 -118.9225 131° Southeast 296 341 10,900 -1,080 Descending Los Angeles Center
11:10AM 34.4108 -118.8247 77° East 297 342 8,800 -1,980 Descending Los Angeles Center
11:11AM 34.4369 -118.7283 72° East 301 346 6,900 -1,380 Descending Los Angeles Center
11:12AM 34.4453 -118.6339 84° East 292 336 6,000 -780 Descending Los Angeles Center
11:13AM 34.4203 -118.5622 113° Southeast 207 238 5,300 -1,020 Descending Los Angeles Center
11:14AM 34.3764 -118.5261 146° Southeast 190 219 4,000 -960 Descending Los Angeles Center
11:15AM 34.3350 -118.5094 162° South 171 197 3,400 -300 Descending Los Angeles Center
11:16AM 34.3000 -118.5089 179° South 134 154 3,400 -540 Level Los Angeles Center
11:17AM 34.2647 -118.4997 168° South 129 148 2,400 -1,140 Descending Los Angeles Center
11:18AM 34.2286 -118.4922 170° South 132 152 1,100 -1,260 Descending Los Angeles Center
11:20AM 34.2098 -118.4900 180° South  Level Estimated